地図

経路データ

SID SEASON NUMBER BASIN SUBBASIN NAME ISO_TIME NATURE LAT LON WMO_WIND WMO_PRES WMO_AGENCY TRACK_TYPE DIST2LAND LANDFALL IFLAG USA_AGENCY USA_ATCF_ID USA_LAT USA_LON USA_RECORD USA_STATUS USA_WIND USA_PRES USA_SSHS USA_R34_NE USA_R34_SE USA_R34_SW USA_R34_NW USA_R50_NE USA_R50_SE USA_R50_SW USA_R50_NW USA_R64_NE USA_R64_SE USA_R64_SW USA_R64_NW USA_POCI USA_ROCI USA_RMW USA_EYE TOKYO_LAT TOKYO_LON TOKYO_GRADE TOKYO_WIND TOKYO_PRES TOKYO_R50_DIR TOKYO_R50_LONG TOKYO_R50_SHORT TOKYO_R30_DIR TOKYO_R30_LONG TOKYO_R30_SHORT TOKYO_LAND CMA_LAT CMA_LON CMA_CAT CMA_WIND CMA_PRES HKO_LAT HKO_LON HKO_CAT HKO_WIND HKO_PRES NEWDELHI_LAT NEWDELHI_LON NEWDELHI_GRADE NEWDELHI_WIND NEWDELHI_PRES NEWDELHI_CI NEWDELHI_DP NEWDELHI_POCI REUNION_LAT REUNION_LON REUNION_TYPE REUNION_WIND REUNION_PRES REUNION_TNUM REUNION_CI REUNION_RMW REUNION_R34_NE REUNION_R34_SE REUNION_R34_SW REUNION_R34_NW REUNION_R50_NE REUNION_R50_SE REUNION_R50_SW REUNION_R50_NW REUNION_R64_NE REUNION_R64_SE REUNION_R64_SW REUNION_R64_NW BOM_LAT BOM_LON BOM_TYPE BOM_WIND BOM_PRES BOM_TNUM BOM_CI BOM_RMW BOM_R34_NE BOM_R34_SE BOM_R34_SW BOM_R34_NW BOM_R50_NE BOM_R50_SE BOM_R50_SW BOM_R50_NW BOM_R64_NE BOM_R64_SE BOM_R64_SW BOM_R64_NW BOM_ROCI BOM_POCI BOM_EYE BOM_POS_METHOD BOM_PRES_METHOD NADI_LAT NADI_LON NADI_CAT NADI_WIND NADI_PRES WELLINGTON_LAT WELLINGTON_LON WELLINGTON_WIND WELLINGTON_PRES DS824_LAT DS824_LON DS824_STAGE DS824_WIND DS824_PRES TD9636_LAT TD9636_LON TD9636_STAGE TD9636_WIND TD9636_PRES TD9635_LAT TD9635_LON TD9635_WIND TD9635_PRES TD9635_ROCI NEUMANN_LAT NEUMANN_LON NEUMANN_CLASS NEUMANN_WIND NEUMANN_PRES MLC_LAT MLC_LON MLC_CLASS MLC_WIND MLC_PRES USA_GUST BOM_GUST BOM_GUST_PER REUNION_GUST REUNION_GUST_PER USA_SEAHGT USA_SEARAD_NE USA_SEARAD_SE USA_SEARAD_SW USA_SEARAD_NW STORM_SPEED STORM_DIR
1999024S11138 1999 8 SP EA NOT_NAMED 1999-01-24 00:00:00 TS -11.3000 138.100 main 164 156 O___________O_ jtwc_sh SH161999 -11.3000 138.100 20 -1 -11.3000 138.100 TC 20 5 160
1999024S11138 1999 8 SP EA NOT_NAMED 1999-01-24 03:00:00 TS -11.5100 138.185 main 158 152 P___________P_ SH161999 -11.5100 138.185 22 -1 -11.5100 138.185 TC 22 4 154
1999024S11138 1999 8 SP EA NOT_NAMED 1999-01-24 06:00:00 TS -11.7000 138.300 main 156 152 O___________O_ jtwc_sh SH161999 -11.7000 138.300 25 -1 -11.7000 138.300 TC 25 4 143
1999024S11138 1999 8 SP EA NOT_NAMED 1999-01-24 09:00:00 TS -11.8575 138.458 main 169 169 P___________P_ SH161999 -11.8575 138.458 25 -1 -11.8575 138.458 TC 25 4 136
1999024S11138 1999 8 SP EA NOT_NAMED 1999-01-24 12:00:00 TS -12.0000 138.600 main 177 175 O___________O_ jtwc_sh SH161999 -12.0000 138.600 25 -1 -12.0000 138.600 TC 25 4 144
1999024S11138 1999 8 SP EA NOT_NAMED 1999-01-24 15:00:00 TS -12.1500 138.673 main 186 184 P___________P_ SH161999 -12.1500 138.673 25 -1 -12.1500 138.673 TC 25 3 163
1999024S11138 1999 8 SP EA NOT_NAMED 1999-01-24 18:00:00 TS -12.3000 138.700 main 184 184 O___________O_ jtwc_sh SH161999 -12.3000 138.700 25 -1 -12.3000 138.700 TC 25 3 175
1999024S11138 1999 8 SP EA NOT_NAMED 1999-01-24 21:00:00 TS -12.4500 138.708 main 185 185 P___________P_ SH161999 -12.4500 138.708 27 -1 -12.4500 138.708 TC 27 3 0
1999024S11138 1999 8 SP EA NOT_NAMED 1999-01-25 00:00:00 TS -12.6000 138.700 main 187 187 O___________O_ jtwc_sh SH161999 -12.6000 138.700 30 -1 -12.6000 138.700 TC 30 3 0
1999024S11138 1999 8 SP EA NOT_NAMED 1999-01-25 03:00:00 TS -12.7500 138.700 main 190 190 P___________P_ SH161999 -12.7500 138.700 30 -1 -12.7500 138.700 TC 30 3 0
1999024S11138 1999 8 SP EA NOT_NAMED 1999-01-25 06:00:00 TS -12.9000 138.700 main 196 196 O___________O_ jtwc_sh SH161999 -12.9000 138.700 30 -1 -12.9000 138.700 TC 30 3 0
1999024S11138 1999 8 SP EA NOT_NAMED 1999-01-25 09:00:00 TS -13.0575 138.707 main 205 205 P___________P_ SH161999 -13.0575 138.707 32 -1 -13.0575 138.707 TC 32 3 0
1999024S11138 1999 8 SP EA NOT_NAMED 1999-01-25 12:00:00 TS -13.2000 138.700 main 205 202 O___________O_ jtwc_sh SH161999 -13.2000 138.700 35 0 -13.2000 138.700 TC 35 2 194
1999024S11138 1999 8 SP EA NOT_NAMED 1999-01-25 15:00:00 TS -13.3000 138.658 main 202 189 P___________P_ SH161999 -13.3000 138.658 35 0 -13.3000 138.658 TC 35 2 207
1999024S11138 1999 8 SP EA NOT_NAMED 1999-01-25 18:00:00 TS -13.4000 138.600 main 189 186 O___________O_ jtwc_sh SH161999 -13.4000 138.600 35 0 -13.4000 138.600 TC 35 3 204
1999024S11138 1999 8 SP EA NOT_NAMED 1999-01-25 21:00:00 TS -13.5425 138.550 main 186 173 P___________P_ SH161999 -13.5425 138.550 35 0 -13.5425 138.550 TC 35 3 197
1999024S11138 1999 8 SP EA NOT_NAMED 1999-01-26 00:00:00 TS -13.7000 138.500 main 173 171 O___________O_ jtwc_sh SH161999 -13.7000 138.500 35 0 -13.7000 138.500 TC 35 3 197
1999024S11138 1999 8 SP EA NOT_NAMED 1999-01-26 03:00:00 TS -13.8500 138.450 main 171 154 P___________P_ SH161999 -13.8500 138.450 35 0 -13.8500 138.450 TC 35 3 197
1999024S11138 1999 8 SP EA NOT_NAMED 1999-01-26 06:00:00 TS -14.0000 138.400 main 154 141 O___________O_ jtwc_sh SH161999 -14.0000 138.400 35 0 -14.0000 138.400 TC 35 3 199
1999024S11138 1999 8 SP EA NOT_NAMED 1999-01-26 09:00:00 TS -14.1500 138.343 main 141 140 P___________P_ SH161999 -14.1500 138.343 35 0 -14.1500 138.343 TC 35 3 197
1999024S11138 1999 8 SP EA NOT_NAMED 1999-01-26 12:00:00 TS -14.3000 138.300 main 140 140 O___________O_ jtwc_sh SH161999 -14.3000 138.300 35 0 -14.3000 138.300 TC 35 3 192
1999024S11138 1999 8 SP EA NOT_NAMED 1999-01-26 15:00:00 TS -14.4425 138.292 main 140 140 P___________P_ SH161999 -14.4425 138.292 32 -1 -14.4425 138.292 TC 32 3 0
1999024S11138 1999 8 SP EA NOT_NAMED 1999-01-26 18:00:00 TS -14.6000 138.300 main 144 144 O___________O_ jtwc_sh SH161999 -14.6000 138.300 30 -1 -14.6000 138.300 TC 30 4 0
1999024S11138 1999 8 SP EA NOT_NAMED 1999-01-26 21:00:00 TS -14.7900 138.303 main 150 148 P___________P_ SH161999 -14.7900 138.303 27 -1 -14.7900 138.303 TC 27 4 0
1999024S11138 1999 8 SP EA NOT_NAMED 1999-01-27 00:00:00 TS -15.0000 138.300 main 148 O___________O_ jtwc_sh SH161999 -15.0000 138.300 25 -1 -15.0000 138.300 TC 25 4 0

デジタル台風データ・検索

IBTrACS Databaseについて

本データベースは、米国NOAAが公開する1842年以降の世界の熱帯低気圧のベストトラックデータアーカイブInternational Best Track Archive for Climate Stewardship (IBTrACS)を、ウェブで閲覧しやすい形式に変換したものです。

最終更新日:2021-12-06